Preview of NWS' New Version of Forecast
This preview is not operational and should not be used for support decisions.

Terminal Aerodrome Forecast (TAF)

Issued by National Weather Service (NWS)

                            
000
FTUS42 KKEY 160452 AAD
TAFEYW
TAF AMD
KEYW 160452Z 1605/1624 36010KT P6SM BKN025
      TEMPO 1605/1609 SCT025
     FM161200 01010KT P6SM FEW020=